Time;durP1;ratioP1;P1;durP2;ratioP2;P2;SDS_P1;SDS_P2;PMS_P1;PMS_P2;Temp;Humidity;BMP_temperature;BMP_pressure;BME280_temperature;BME280_humidity;BME280_pressure;Samples;Min_cycle;Max_cycle;Signal;HPM_P1;HPM_P2
2021/06/24 00:02:00;;;;;;;0.32;0.32;;;24.20;99.90;;;;;;5068807;28;20246;-67
2021/06/24 00:04:27;;;;;;;1.20;1.13;;;24.20;99.90;;;;;;5068945;28;20161;-68
2021/06/24 00:06:53;;;;;;;0.90;0.88;;;24.20;99.90;;;;;;5068925;28;20195;-68
2021/06/24 00:09:19;;;;;;;2.10;1.40;;;24.10;99.90;;;;;;5068991;28;20589;-68
2021/06/24 00:11:45;;;;;;;1.38;1.25;;;24.10;99.90;;;;;;5068826;28;20223;-68
2021/06/24 00:14:11;;;;;;;0.75;0.75;;;24.10;99.90;;;;;;5068720;28;20188;-68
2021/06/24 00:16:37;;;;;;;1.65;1.55;;;24.00;99.90;;;;;;5050920;28;20161;-68
2021/06/24 00:19:03;;;;;;;1.70;1.60;;;23.90;99.90;;;;;;5068771;28;20164;-68
2021/06/24 00:21:29;;;;;;;1.52;1.42;;;24.00;99.90;;;;;;5052293;28;20203;-68
2021/06/24 00:23:54;;;;;;;0.70;0.70;;;24.00;99.90;;;;;;5072633;28;20165;-67
2021/06/24 00:26:20;;;;;;;1.38;1.27;;;24.00;99.90;;;;;;5072525;28;20160;-67
2021/06/24 00:28:46;;;;;;;2.50;1.13;;;23.90;99.90;;;;;;5072603;28;20195;-68
2021/06/24 00:31:12;;;;;;;1.75;1.40;;;23.80;99.90;;;;;;5054486;28;20224;-67
2021/06/24 00:33:38;;;;;;;2.47;1.60;;;23.90;99.90;;;;;;5072374;28;20191;-67
2021/06/24 00:36:04;;;;;;;0.65;0.65;;;24.00;99.90;;;;;;5072402;28;20160;-67
2021/06/24 00:38:30;;;;;;;1.38;1.23;;;23.90;99.90;;;;;;5072428;28;20164;-67
2021/06/24 00:40:57;;;;;;;2.72;1.42;;;23.90;99.90;;;;;;5072249;28;20160;-67
2021/06/24 00:43:26;;;;;;;3.90;1.15;;;24.00;99.90;;;;;;5072087;28;20238;-67
2021/06/24 00:45:52;;;;;;;1.52;1.42;;;23.90;99.90;;;;;;5072193;28;20168;-67
2021/06/24 00:48:18;;;;;;;0.95;0.95;;;23.80;99.90;;;;;;5076960;28;20266;-67
2021/06/24 00:50:46;;;;;;;2.00;1.85;;;23.70;99.90;;;;;;5092128;28;20159;-67
2021/06/24 00:53:13;;;;;;;2.08;1.25;;;23.70;99.90;;;;;;5091818;28;20227;-68
2021/06/24 00:55:47;;;;;;;2.53;1.60;;;23.60;99.90;;;;;;5092135;28;20248;-68
2021/06/24 00:58:25;;;;;;;0.65;0.65;;;23.60;99.90;;;;;;5092128;28;20176;-67
2021/06/24 01:00:56;;;;;;;1.45;1.10;;;23.50;99.90;;;;;;5091928;28;20170;-68
2021/06/24 01:03:23;;;;;;;0.82;0.75;;;23.50;99.90;;;;;;5091888;28;20152;-68
2021/06/24 01:05:50;;;;;;;0.93;0.85;;;23.40;99.90;;;;;;5073888;28;20163;-68
2021/06/24 01:08:16;;;;;;;2.15;0.82;;;23.40;99.90;;;;;;5089103;28;20182;-68
2021/06/24 01:10:45;;;;;;;0.77;0.77;;;23.40;99.90;;;;;;5091368;28;20167;-68
2021/06/24 01:13:12;;;;;;;1.70;1.10;;;23.30;99.90;;;;;;5091491;28;20203;-69
2021/06/24 01:15:39;;;;;;;4.60;1.33;;;23.20;99.90;;;;;;5091784;28;20221;-67
2021/06/24 01:18:05;;;;;;;2.13;1.42;;;23.10;99.90;;;;;;5091717;28;20246;-68
2021/06/24 01:20:34;;;;;;;0.90;0.90;;;23.10;99.90;;;;;;5073539;28;20814;-68
2021/06/24 01:23:01;;;;;;;2.28;2.13;;;23.10;99.90;;;;;;5073397;28;20206;-68
2021/06/24 01:25:28;;;;;;;0.85;0.77;;;23.00;99.90;;;;;;5071525;28;20216;-68
2021/06/24 01:28:04;;;;;;;1.83;1.25;;;23.10;99.90;;;;;;5071518;28;20163;-68
2021/06/24 01:30:30;;;;;;;1.63;1.52;;;23.00;99.90;;;;;;5071312;28;20241;-68
2021/06/24 01:32:56;;;;;;;2.80;2.60;;;22.90;99.90;;;;;;5070988;28;20196;-68
2021/06/24 01:35:24;;;;;;;1.48;1.38;;;22.80;99.90;;;;;;5071371;28;20182;-68
2021/06/24 01:37:59;;;;;;;3.50;1.05;;;22.70;99.90;;;;;;5071308;28;20160;-68
2021/06/24 01:40:26;;;;;;;0.30;0.30;;;22.70;99.90;;;;;;5070999;28;20187;-68
2021/06/24 01:42:53;;;;;;;0.90;0.90;;;22.70;99.90;;;;;;5070982;28;20251;-69
2021/06/24 01:45:21;;;;;;;1.75;1.65;;;22.70;99.90;;;;;;5053090;28;20607;-69
2021/06/24 01:47:47;;;;;;;1.15;1.05;;;22.70;99.90;;;;;;5071630;28;20161;-68
2021/06/24 01:50:14;;;;;;;1.85;1.38;;;22.70;99.90;;;;;;5090977;28;20187;-69
2021/06/24 01:52:42;;;;;;;4.45;1.55;;;22.60;99.90;;;;;;5090852;28;20182;-67
2021/06/24 01:55:10;;;;;;;1.50;1.23;;;22.60;99.90;;;;;;5090918;28;20170;-68
2021/06/24 01:57:36;;;;;;;1.10;1.00;;;22.50;99.90;;;;;;5090783;28;20189;-68
2021/06/24 02:00:09;;;;;;;4.05;2.03;;;22.60;99.90;;;;;;5072681;28;20194;-68
2021/06/24 02:02:35;;;;;;;2.47;2.25;;;22.60;99.90;;;;;;5090904;28;20156;-68
2021/06/24 02:05:03;;;;;;;2.85;1.65;;;22.50;99.90;;;;;;5090814;28;20216;-67
2021/06/24 02:07:30;;;;;;;1.80;1.52;;;22.60;99.90;;;;;;5090624;28;20163;-67
2021/06/24 02:09:56;;;;;;;1.15;1.05;;;22.60;99.90;;;;;;5090552;28;20196;-67
2021/06/24 02:12:22;;;;;;;0.77;0.77;;;22.60;99.90;;;;;;5090535;28;20162;-67
2021/06/24 02:14:47;;;;;;;2.55;2.03;;;22.50;99.90;;;;;;5090502;28;20187;-67
2021/06/24 02:17:13;;;;;;;1.13;0.60;;;22.50;99.90;;;;;;5090500;28;20157;-67
2021/06/24 02:19:39;;;;;;;2.03;1.65;;;22.50;99.90;;;;;;5090390;28;20554;-69
2021/06/24 02:22:05;;;;;;;4.75;2.17;;;22.50;99.90;;;;;;5090420;28;20152;-68
2021/06/24 02:24:31;;;;;;;0.70;0.60;;;22.50;99.90;;;;;;5090420;28;20162;-68
2021/06/24 02:26:57;;;;;;;1.75;1.65;;;22.50;99.90;;;;;;5090265;28;20164;-68
2021/06/24 02:29:23;;;;;;;3.55;1.40;;;22.50;99.90;;;;;;5090124;28;20582;-68
2021/06/24 02:31:49;;;;;;;2.10;1.60;;;22.50;99.90;;;;;;5090099;28;20170;-68
2021/06/24 02:34:17;;;;;;;0.95;0.90;;;22.40;99.90;;;;;;5090045;28;20210;-68
2021/06/24 02:36:42;;;;;;;19.00;1.55;;;22.40;99.90;;;;;;5090088;28;20621;-68
2021/06/24 02:39:08;;;;;;;1.60;1.30;;;22.40;99.90;;;;;;5089891;28;20191;-68
2021/06/24 02:41:35;;;;;;;1.25;1.17;;;22.40;99.90;;;;;;5089882;28;20560;-68
2021/06/24 02:44:03;;;;;;;1.83;1.70;;;22.40;99.90;;;;;;5089086;28;20219;-67
2021/06/24 02:46:29;;;;;;;4.72;2.97;;;22.40;99.90;;;;;;5089894;28;20155;-68
2021/06/24 02:48:55;;;;;;;6.20;1.58;;;22.30;99.90;;;;;;5089734;28;20247;-68
2021/06/24 02:51:21;;;;;;;1.35;1.25;;;22.20;99.90;;;;;;5089916;28;20289;-69
2021/06/24 02:53:47;;;;;;;0.43;0.43;;;22.10;99.90;;;;;;5089283;28;20260;-67
2021/06/24 02:56:12;;;;;;;1.00;0.93;;;22.10;99.90;;;;;;5089697;28;20160;-68
2021/06/24 02:58:40;;;;;;;1.40;0.88;;;22.10;99.90;;;;;;5089391;28;20214;-68
2021/06/24 03:01:08;;;;;;;2.55;1.55;;;22.10;99.90;;;;;;5089552;28;20163;-68
2021/06/24 03:03:34;;;;;;;2.22;1.85;;;22.10;99.90;;;;;;5089752;28;20164;-68
2021/06/24 03:06:00;;;;;;;1.95;1.73;;;22.00;99.90;;;;;;5089571;28;20224;-67
2021/06/24 03:08:26;;;;;;;1.20;1.10;;;22.10;99.90;;;;;;5089291;28;20170;-67
2021/06/24 03:10:52;;;;;;;5.47;3.00;;;22.00;99.90;;;;;;5089579;28;20215;-67
2021/06/24 03:13:17;;;;;;;0.82;0.82;;;22.00;99.90;;;;;;5089349;28;20190;-68
2021/06/24 03:15:44;;;;;;;3.90;1.40;;;21.90;99.90;;;;;;5089341;28;20651;-68
2021/06/24 03:18:10;;;;;;;0.98;0.90;;;21.90;99.90;;;;;;5089322;28;20238;-68
2021/06/24 03:20:36;;;;;;;2.70;0.90;;;22.00;99.90;;;;;;5089339;28;20163;-68
2021/06/24 03:23:02;;;;;;;1.90;1.58;;;22.00;99.90;;;;;;5089370;28;20163;-67
2021/06/24 03:25:29;;;;;;;1.55;1.25;;;22.00;99.90;;;;;;5089335;28;20167;-67
2021/06/24 03:27:55;;;;;;;1.27;0.65;;;21.90;99.90;;;;;;5071368;28;20183;-67
2021/06/24 03:30:22;;;;;;;2.35;1.98;;;21.90;99.90;;;;;;5089127;28;20206;-67
2021/06/24 03:32:49;;;;;;;1.30;1.25;;;21.90;99.90;;;;;;5071136;28;20217;-67
2021/06/24 03:35:16;;;;;;;1.20;1.17;;;21.90;99.90;;;;;;5089233;28;20168;-67
2021/06/24 03:37:43;;;;;;;1.73;1.48;;;22.00;99.90;;;;;;5089133;28;20524;-67
2021/06/24 03:40:15;;;;;;;2.08;0.68;;;21.90;99.90;;;;;;5070950;28;20222;-67
2021/06/24 03:42:44;;;;;;;1.17;0.85;;;22.00;99.90;;;;;;5089172;28;20685;-67
2021/06/24 03:45:10;;;;;;;11.63;1.48;;;22.00;99.90;;;;;;5071052;28;20242;-67
2021/06/24 03:47:36;;;;;;;1.30;1.20;;;22.10;99.90;;;;;;5089011;28;20156;-67
2021/06/24 03:50:04;;;;;;;2.25;1.95;;;22.20;99.90;;;;;;5088743;28;20192;-67
2021/06/24 03:52:30;;;;;;;3.42;1.92;;;22.20;99.90;;;;;;5088822;28;20175;-67
2021/06/24 03:54:56;;;;;;;0.80;0.80;;;22.40;99.90;;;;;;5089477;28;20255;-68
2021/06/24 03:57:22;;;;;;;5.82;1.80;;;22.60;99.90;;;;;;5093136;28;20159;-68
2021/06/24 03:59:48;;;;;;;1.35;1.13;;;22.80;99.90;;;;;;5092721;28;20202;-68
2021/06/24 04:02:14;;;;;;;5.80;2.53;;;23.00;99.90;;;;;;5092794;28;20179;-69
2021/06/24 04:04:41;;;;;;;1.08;0.95;;;23.40;99.90;;;;;;5092956;28;20159;-68
2021/06/24 04:07:07;;;;;;;1.00;1.00;;;23.70;99.90;;;;;;5075048;28;20182;-68
2021/06/24 04:09:32;;;;;;;1.55;1.23;;;24.20;99.90;;;;;;5092756;28;20195;-68
2021/06/24 04:11:58;;;;;;;1.00;0.93;;;24.40;99.90;;;;;;5092650;28;20166;-68
2021/06/24 04:14:25;;;;;;;1.45;1.38;;;24.60;99.90;;;;;;5092494;28;20183;-68
2021/06/24 04:16:50;;;;;;;4.22;1.27;;;25.10;99.90;;;;;;5092607;28;20268;-68
2021/06/24 04:19:17;;;;;;;2.35;1.00;;;25.50;99.90;;;;;;5092685;28;20203;-68
2021/06/24 04:21:44;;;;;;;1.80;1.10;;;25.70;99.90;;;;;;5092598;28;20152;-68
2021/06/24 04:24:10;;;;;;;1.05;1.05;;;26.20;99.90;;;;;;5092328;28;20156;-68
2021/06/24 04:26:36;;;;;;;2.03;1.85;;;26.40;99.90;;;;;;5092504;28;20167;-68
2021/06/24 04:29:02;;;;;;;1.40;0.63;;;26.20;99.90;;;;;;5092140;28;20188;-68
2021/06/24 04:31:28;;;;;;;1.45;1.35;;;26.00;99.90;;;;;;5092187;28;20164;-68
2021/06/24 04:33:54;;;;;;;38.50;3.05;;;26.30;99.90;;;;;;5092236;28;20184;-69
2021/06/24 04:36:19;;;;;;;3.78;0.98;;;26.60;99.90;;;;;;5092215;28;20181;-68
2021/06/24 04:38:45;;;;;;;2.95;1.27;;;26.70;99.90;;;;;;5092059;28;20250;-68
2021/06/24 04:41:11;;;;;;;0.85;0.68;;;27.00;99.90;;;;;;5092182;28;20176;-68
2021/06/24 04:43:37;;;;;;;0.93;0.93;;;27.10;99.90;;;;;;5091851;28;20211;-68
2021/06/24 04:46:03;;;;;;;2.40;2.05;;;27.00;99.90;;;;;;5091662;28;20204;-67
2021/06/24 04:48:29;;;;;;;1.48;0.77;;;27.30;99.90;;;;;;5091390;28;20190;-68
2021/06/24 04:50:55;;;;;;;0.75;0.75;;;27.30;99.90;;;;;;5091796;28;20194;-68
2021/06/24 04:53:21;;;;;;;0.68;0.68;;;27.90;99.90;;;;;;5088823;28;20195;-67
2021/06/24 04:55:47;;;;;;;0.90;0.90;;;27.90;99.90;;;;;;5089313;28;20190;-68
2021/06/24 04:58:13;;;;;;;1.25;1.17;;;28.10;99.90;;;;;;5091636;28;20160;-68
2021/06/24 05:00:38;;;;;;;0.47;0.47;;;28.30;99.90;;;;;;5091775;28;20235;-68
2021/06/24 05:03:09;;;;;;;7.90;1.25;;;29.00;99.90;;;;;;5091520;28;20156;-67
2021/06/24 05:05:35;;;;;;;2.42;1.73;;;29.10;99.90;;;;;;5073417;28;20190;-67
2021/06/24 05:08:07;;;;;;;1.45;0.75;;;29.00;99.90;;;;;;5090854;28;20159;-68
2021/06/24 05:10:33;;;;;;;2.88;1.90;;;29.40;99.90;;;;;;5091193;28;20194;-68
2021/06/24 05:12:59;;;;;;;2.13;1.42;;;30.10;99.90;;;;;;5091304;28;20180;-68
2021/06/24 05:15:25;;;;;;;2.65;2.28;;;30.60;99.90;;;;;;5091486;28;20159;-68
2021/06/24 05:17:52;;;;;;;7.55;2.10;;;31.00;99.90;;;;;;5091014;28;20152;-68
2021/06/24 05:20:18;;;;;;;3.10;2.15;;;30.40;99.90;;;;;;5073142;28;20195;-68
2021/06/24 05:22:44;;;;;;;3.67;1.00;;;29.60;99.90;;;;;;5073284;28;20167;-68
2021/06/24 05:25:11;;;;;;;1.40;1.30;;;30.10;99.90;;;;;;5091155;28;20154;-68
2021/06/24 05:27:37;;;;;;;3.28;1.35;;;29.80;99.90;;;;;;5090662;28;20168;-68
2021/06/24 05:30:04;;;;;;;4.38;1.85;;;30.00;99.90;;;;;;5072767;28;20215;-68
2021/06/24 05:32:30;;;;;;;1.98;1.23;;;30.50;99.90;;;;;;5090665;28;20156;-68
2021/06/24 05:34:56;;;;;;;2.78;1.75;;;31.20;99.90;;;;;;5090720;28;20248;-69
2021/06/24 05:37:22;;;;;;;0.88;0.88;;;31.00;99.90;;;;;;5091171;28;20159;-68
2021/06/24 05:39:47;;;;;;;1.38;0.98;;;31.30;99.90;;;;;;5072592;28;20198;-68
2021/06/24 05:42:13;;;;;;;3.70;2.88;;;31.90;99.90;;;;;;5091002;28;20186;-68
2021/06/24 05:44:39;;;;;;;3.60;1.55;;;31.80;99.90;;;;;;5090408;28;20215;-68
2021/06/24 05:47:05;;;;;;;1.75;1.58;;;31.20;99.90;;;;;;5090936;28;20175;-68
2021/06/24 05:49:31;;;;;;;5.95;1.70;;;31.40;99.90;;;;;;5075653;28;20196;-68
2021/06/24 05:51:57;;;;;;;1.83;1.40;;;31.00;99.90;;;;;;5070835;28;20172;-68
2021/06/24 05:54:23;;;;;;;2.90;2.28;;;31.00;99.90;;;;;;5081609;28;20192;-68
2021/06/24 05:56:49;;;;;;;1.33;1.25;;;30.70;99.90;;;;;;5074391;28;20200;-68
2021/06/24 05:59:15;;;;;;;2.28;1.38;;;30.30;99.90;;;;;;5070392;28;20161;-68
2021/06/24 06:01:43;;;;;;;7.13;2.15;;;29.60;99.90;;;;;;5070337;28;20582;-69
2021/06/24 06:04:10;;;;;;;11.18;1.20;;;29.40;99.90;;;;;;5070567;28;20237;-68
2021/06/24 06:06:36;;;;;;;1.58;1.48;;;30.40;99.90;;;;;;5070475;28;20188;-68
2021/06/24 06:09:02;;;;;;;2.25;1.98;;;30.70;99.90;;;;;;5069462;28;20598;-68
2021/06/24 06:11:28;;;;;;;1.15;0.93;;;31.10;99.90;;;;;;5070189;28;20156;-68
2021/06/24 06:13:54;;;;;;;4.93;2.13;;;30.90;99.90;;;;;;5068871;28;20222;-68
2021/06/24 06:16:20;;;;;;;1.02;0.90;;;31.20;99.90;;;;;;5068728;28;20190;-68
2021/06/24 06:18:46;;;;;;;4.90;2.53;;;31.80;99.90;;;;;;5067921;28;20187;-68
2021/06/24 06:21:12;;;;;;;20.00;1.88;;;31.40;99.90;;;;;;5069753;28;20163;-68
2021/06/24 06:23:38;;;;;;;3.40;1.83;;;31.40;99.90;;;;;;5069521;28;20164;-68
2021/06/24 06:26:04;;;;;;;8.45;3.70;;;31.50;99.90;;;;;;5069573;28;20221;-68
2021/06/24 06:28:30;;;;;;;2.20;1.70;;;31.50;99.90;;;;;;5069877;28;20161;-68
2021/06/24 06:30:58;;;;;;;3.45;1.15;;;31.20;99.90;;;;;;5069812;28;20167;-68
2021/06/24 06:33:25;;;;;;;9.25;2.33;;;31.20;99.90;;;;;;5051877;28;20199;-68
2021/06/24 06:35:52;;;;;;;0.80;0.80;;;31.70;99.90;;;;;;5069891;28;20237;-68
2021/06/24 06:38:20;;;;;;;4.82;1.55;;;32.00;99.90;;;;;;5069495;28;20167;-68
2021/06/24 06:40:46;;;;;;;0.70;0.70;;;32.80;99.90;;;;;;5069803;28;20161;-68
2021/06/24 06:43:15;;;;;;;5.70;3.13;;;33.80;99.90;;;;;;5044743;28;20227;-68
2021/06/24 06:45:42;;;;;;;16.08;2.03;;;34.60;99.90;;;;;;5029879;28;20178;-69
2021/06/24 06:48:10;;;;;;;4.90;2.65;;;35.10;99.90;;;;;;5028691;28;20172;-69
2021/06/24 06:50:39;;;;;;;3.55;1.98;;;34.80;99.90;;;;;;5030017;28;20654;-68
2021/06/24 06:53:06;;;;;;;2.47;2.25;;;34.30;99.90;;;;;;5029745;28;20192;-68
2021/06/24 06:55:34;;;;;;;5.28;1.65;;;33.70;99.90;;;;;;5045217;28;20236;-68
2021/06/24 06:58:00;;;;;;;1.95;1.42;;;33.70;99.90;;;;;;5049671;28;20157;-68
2021/06/24 07:00:28;;;;;;;2.38;1.13;;;34.00;99.90;;;;;;5049380;28;20211;-68
2021/06/24 07:02:55;;;;;;;2.03;1.80;;;34.50;99.90;;;;;;5048387;28;20161;-68
2021/06/24 07:05:21;;;;;;;4.93;2.10;;;35.10;99.90;;;;;;5049523;28;20571;-68
2021/06/24 07:07:47;;;;;;;2.72;1.90;;;36.20;99.90;;;;;;5049486;28;20184;-68
2021/06/24 07:10:14;;;;;;;5.03;1.40;;;36.20;99.90;;;;;;5049422;28;20185;-69
2021/06/24 07:12:40;;;;;;;2.50;2.30;;;35.30;99.90;;;;;;5049304;28;20157;-69
2021/06/24 07:15:06;;;;;;;2.35;1.30;;;34.90;99.90;;;;;;5049317;28;20164;-68
2021/06/24 07:17:32;;;;;;;4.53;1.92;;;35.60;99.90;;;;;;5047899;28;20203;-68
2021/06/24 07:19:58;;;;;;;3.30;0.82;;;36.00;99.90;;;;;;5049224;28;20161;-68
2021/06/24 07:22:24;;;;;;;3.38;1.65;;;37.00;99.90;;;;;;5049174;28;20229;-68
2021/06/24 07:24:50;;;;;;;2.65;2.45;;;38.20;99.90;;;;;;5049187;28;20168;-68
2021/06/24 07:27:16;;;;;;;1.02;1.02;;;38.80;99.90;;;;;;5049339;28;20192;-68
2021/06/24 07:29:42;;;;;;;1.23;1.13;;;38.30;99.90;;;;;;5048830;28;20248;-68
2021/06/24 07:32:08;;;;;;;1.63;1.45;;;37.30;99.90;;;;;;5049133;28;20161;-68
2021/06/24 07:34:34;;;;;;;8.18;1.35;;;37.20;99.90;;;;;;5049158;28;20204;-68
2021/06/24 07:37:00;;;;;;;7.63;1.48;;;37.20;99.90;;;;;;5048999;28;20199;-68
2021/06/24 07:39:26;;;;;;;2.42;1.83;;;36.60;99.90;;;;;;5047865;28;20160;-69
2021/06/24 07:41:52;;;;;;;1.65;1.08;;;37.00;99.90;;;;;;5049078;28;20145;-68
2021/06/24 07:44:18;;;;;;;6.03;1.15;;;36.90;99.90;;;;;;5074339;28;20219;-69
2021/06/24 07:46:45;;;;;;;19.42;2.03;;;37.80;99.90;;;;;;5088933;28;20195;-68
2021/06/24 07:49:11;;;;;;;2.75;2.03;;;38.10;99.90;;;;;;5089025;28;20167;-68
2021/06/24 07:51:37;;;;;;;4.13;1.27;;;37.10;99.90;;;;;;5088819;28;20167;-68
2021/06/24 07:54:03;;;;;;;2.10;1.67;;;36.60;99.90;;;;;;5089113;28;20195;-67
2021/06/24 07:56:28;;;;;;;2.17;1.75;;;37.00;99.90;;;;;;5088895;28;20194;-68
2021/06/24 07:58:54;;;;;;;3.33;2.28;;;36.90;99.90;;;;;;5088836;28;20160;-68
2021/06/24 08:01:21;;;;;;;4.68;2.38;;;35.80;99.90;;;;;;5088676;28;20162;-69
2021/06/24 08:03:51;;;;;;;1.00;1.00;;;34.90;99.90;;;;;;5088808;28;20163;-68
2021/06/24 08:06:17;;;;;;;1.15;1.05;;;35.20;99.90;;;;;;5088727;28;20294;-67
2021/06/24 08:08:43;;;;;;;7.45;2.50;;;35.60;99.90;;;;;;5088942;28;20155;-67
2021/06/24 08:11:09;;;;;;;2.25;2.05;;;36.10;99.90;;;;;;5088491;28;20168;-68
2021/06/24 08:13:35;;;;;;;3.60;2.00;;;37.00;99.90;;;;;;5088705;28;20243;-68
2021/06/24 08:16:02;;;;;;;5.80;2.50;;;38.00;99.90;;;;;;5088539;28;20187;-70
2021/06/24 08:18:29;;;;;;;14.00;1.73;;;39.20;99.90;;;;;;5087979;28;20156;-70
2021/06/24 08:20:56;;;;;;;4.22;1.70;;;39.70;99.90;;;;;;5088612;28;20640;-69
2021/06/24 08:23:23;;;;;;;3.25;2.30;;;40.70;99.90;;;;;;5088557;28;20152;-69
2021/06/24 08:25:49;;;;;;;2.25;1.75;;;39.70;99.90;;;;;;5088540;28;20202;-69
2021/06/24 08:28:16;;;;;;;22.50;2.55;;;39.40;99.90;;;;;;5088593;28;20160;-69
2021/06/24 08:30:44;;;;;;;1.77;1.50;;;40.80;99.90;;;;;;5088432;28;20242;-69
2021/06/24 08:33:14;;;;;;;3.53;1.85;;;41.50;99.40;;;;;;5088399;28;20189;-69
2021/06/24 08:35:41;;;;;;;2.60;1.67;;;40.70;99.40;;;;;;5088489;28;20219;-68
2021/06/24 08:38:09;;;;;;;1.42;1.13;;;40.00;99.90;;;;;;5088561;28;20187;-69
2021/06/24 08:40:35;;;;;;;5.00;0.93;;;40.30;99.40;;;;;;5088322;28;20179;-69
2021/06/24 08:43:01;;;;;;;7.45;1.58;;;40.50;98.00;;;;;;5090289;28;20251;-68
2021/06/24 08:45:27;;;;;;;1.70;1.55;;;38.70;98.10;;;;;;5091910;28;20160;-69
2021/06/24 08:47:54;;;;;;;7.03;1.10;;;36.90;99.90;;;;;;5074025;28;20185;-69
2021/06/24 08:50:20;;;;;;;2.70;1.60;;;37.90;99.90;;;;;;5092191;28;20159;-68
2021/06/24 08:52:49;;;;;;;6.68;2.28;;;38.40;99.90;;;;;;5092045;28;20198;-69
2021/06/24 08:55:17;;;;;;;3.70;0.98;;;39.10;99.20;;;;;;5091090;28;20172;-69
2021/06/24 08:57:43;;;;;;;26.15;2.25;;;38.70;99.60;;;;;;5091566;28;20188;-69
2021/06/24 09:00:10;;;;;;;2.47;2.05;;;38.50;99.90;;;;;;5091903;28;20219;-68
2021/06/24 09:02:46;;;;;;;1.33;1.23;;;39.10;99.20;;;;;;5091802;28;20186;-69
2021/06/24 09:05:14;;;;;;;20.52;3.10;;;37.80;98.60;;;;;;5073657;28;20171;-68
2021/06/24 09:07:51;;;;;;;2.40;1.70;;;36.80;99.90;;;;;;5073473;28;20195;-68
2021/06/24 09:10:19;;;;;;;2.53;1.10;;;36.20;99.90;;;;;;5091636;28;20159;-68
2021/06/24 09:13:04;;;;;;;1.08;0.98;;;36.10;99.90;;;;;;5091560;28;20639;-69
2021/06/24 09:15:37;;;;;;;1.58;0.88;;;36.60;99.90;;;;;;5091492;28;20209;-69
2021/06/24 09:18:04;;;;;;;2.67;2.05;;;37.90;99.90;;;;;;5091596;28;20151;-68
2021/06/24 09:20:32;;;;;;;4.05;1.50;;;36.80;99.90;;;;;;5073442;28;20155;-70
2021/06/24 09:23:22;;;;;;;3.42;2.03;;;36.80;99.90;;;;;;5091255;28;20151;-69
2021/06/24 09:26:13;;;;;;;1.95;1.60;;;36.70;99.70;;;;;;5091258;28;20187;-70
2021/06/24 09:28:51;;;;;;;0.85;0.85;;;36.50;99.90;;;;;;5073378;28;20159;-70
2021/06/24 09:31:30;;;;;;;1.92;1.17;;;37.00;99.90;;;;;;5091344;28;20174;-70
2021/06/24 09:34:15;;;;;;;1.77;1.40;;;36.60;99.90;;;;;;5091227;28;20231;-70
2021/06/24 09:36:47;;;;;;;4.75;1.52;;;36.80;99.90;;;;;;5072185;28;20200;-70
2021/06/24 09:39:31;;;;;;;1.70;1.60;;;37.40;99.10;;;;;;5070766;28;20148;-69
2021/06/24 09:42:03;;;;;;;1.20;1.10;;;36.70;99.90;;;;;;5071150;28;20160;-69
2021/06/24 09:44:30;;;;;;;2.67;1.60;;;36.70;99.20;;;;;;5070840;28;20224;-70
2021/06/24 09:46:57;;;;;;;10.38;2.53;;;36.70;99.90;;;;;;5070966;28;20604;-70
2021/06/24 09:49:30;;;;;;;18.67;1.75;;;38.20;98.20;;;;;;5084704;28;20190;-70
2021/06/24 09:51:57;;;;;;;2.33;1.42;;;39.60;96.60;;;;;;5090947;28;20171;-71
2021/06/24 09:54:51;;;;;;;0.85;0.60;;;39.10;97.50;;;;;;5090151;28;20202;-69
2021/06/24 09:57:25;;;;;;;5.57;1.02;;;38.00;98.00;;;;;;5068500;28;20204;-69
2021/06/24 09:59:51;;;;;;;1.08;0.90;;;37.20;99.50;;;;;;5086166;28;20167;-69
2021/06/24 10:02:19;;;;;;;1.20;0.73;;;36.90;98.80;;;;;;5090666;28;20572;-68
2021/06/24 10:04:47;;;;;;;10.77;1.55;;;36.40;97.60;;;;;;5072000;28;20176;-69
2021/06/24 10:07:15;;;;;;;0.80;0.80;;;36.40;99.90;;;;;;5068661;28;20203;-69
2021/06/24 10:09:45;;;;;;;22.30;3.42;;;36.50;98.60;;;;;;5090289;28;20555;-69
2021/06/24 10:12:19;;;;;;;1.95;1.70;;;37.00;98.50;;;;;;5072452;28;20652;-70
2021/06/24 10:14:45;;;;;;;4.50;2.03;;;37.50;98.30;;;;;;5090103;28;20203;-69
2021/06/24 10:17:12;;;;;;;13.02;2.75;;;36.50;99.20;;;;;;5072287;28;20234;-69
2021/06/24 10:19:41;;;;;;;11.15;1.88;;;36.90;99.10;;;;;;5090322;28;20163;-70
2021/06/24 10:22:19;;;;;;;1.83;1.15;;;36.90;99.10;;;;;;5090260;28;20159;-69
2021/06/24 10:25:03;;;;;;;4.97;1.17;;;37.60;99.30;;;;;;5072190;28;20199;-69
2021/06/24 10:27:35;;;;;;;18.48;2.08;;;36.50;99.50;;;;;;5090198;28;20253;-69
2021/06/24 10:30:16;;;;;;;4.47;2.20;;;36.80;99.10;;;;;;5090192;28;20241;-70
2021/06/24 10:32:57;;;;;;;27.23;3.35;;;37.30;97.50;;;;;;5090155;28;20160;-69
2021/06/24 10:35:23;;;;;;;1.33;1.17;;;37.40;98.10;;;;;;5090047;28;20242;-68
2021/06/24 10:37:50;;;;;;;7.30;1.38;;;36.80;97.30;;;;;;5071845;28;20621;-69
2021/06/24 10:40:33;;;;;;;3.58;1.30;;;36.20;98.10;;;;;;5071879;28;20197;-70
2021/06/24 10:43:02;;;;;;;8.23;2.05;;;35.90;98.20;;;;;;5089401;28;20167;-69
2021/06/24 10:45:29;;;;;;;16.85;3.13;;;36.30;97.80;;;;;;5089492;28;20206;-69
2021/06/24 10:47:56;;;;;;;0.63;0.40;;;35.60;97.80;;;;;;5089643;28;20160;-68
2021/06/24 10:50:32;;;;;;;4.32;1.48;;;35.50;98.30;;;;;;5089887;28;20156;-68
2021/06/24 10:53:03;;;;;;;11.52;1.27;;;36.10;97.60;;;;;;5089483;28;20165;-69
2021/06/24 10:55:42;;;;;;;6.38;1.55;;;35.80;97.40;;;;;;5071691;28;20191;-69
2021/06/24 10:58:10;;;;;;;2.53;1.70;;;35.80;97.60;;;;;;5089542;28;20152;-69
2021/06/24 11:00:38;;;;;;;1.73;1.40;;;35.60;97.40;;;;;;5071522;28;20178;-69
2021/06/24 11:03:07;;;;;;;10.90;1.40;;;34.90;98.10;;;;;;5089086;28;20257;-70
2021/06/24 11:05:38;;;;;;;2.08;1.60;;;35.00;97.60;;;;;;5086180;28;20190;-69
2021/06/24 11:08:27;;;;;;;6.65;2.38;;;35.20;98.20;;;;;;5069403;28;20190;-68
2021/06/24 11:10:59;;;;;;;5.53;1.65;;;34.60;97.80;;;;;;5051400;28;20205;-68
2021/06/24 11:13:38;;;;;;;7.15;1.02;;;34.40;97.70;;;;;;5068978;28;20211;-69
2021/06/24 11:16:15;;;;;;;3.22;1.67;;;34.90;98.40;;;;;;5069372;28;20215;-69
2021/06/24 11:18:44;;;;;;;25.40;1.70;;;35.50;97.30;;;;;;5050952;28;20647;-70
2021/06/24 11:21:21;;;;;;;0.73;0.68;;;35.90;97.40;;;;;;5068792;28;20609;-69
2021/06/24 11:23:54;;;;;;;1.40;0.82;;;36.20;96.80;;;;;;5068991;28;20219;-69
2021/06/24 11:26:25;;;;;;;6.30;1.50;;;36.80;96.40;;;;;;5068933;28;20188;-69
2021/06/24 11:29:10;;;;;;;18.58;2.33;;;36.10;97.10;;;;;;5069117;28;20152;-70
2021/06/24 11:31:44;;;;;;;4.00;1.92;;;36.10;96.70;;;;;;5068926;28;20156;-70
2021/06/24 11:34:29;;;;;;;4.80;1.27;;;35.90;97.70;;;;;;5068414;28;20234;-69
2021/06/24 11:37:00;;;;;;;4.10;1.52;;;35.90;98.00;;;;;;5069051;28;20156;-70
2021/06/24 11:39:28;;;;;;;17.10;1.48;;;36.60;98.20;;;;;;5068732;28;20155;-69
2021/06/24 11:42:00;;;;;;;3.08;1.60;;;36.90;98.20;;;;;;5068902;28;20159;-69
2021/06/24 11:44:32;;;;;;;3.13;1.73;;;36.40;98.10;;;;;;5068630;28;20241;-68
2021/06/24 11:47:08;;;;;;;2.90;2.20;;;36.30;98.20;;;;;;5050379;28;20218;-70
2021/06/24 12:04:20;;;;;;;3.83;2.15;;;35.40;98.60;;;;;;5087165;28;20674;-69
2021/06/24 12:06:49;;;;;;;5.60;1.30;;;35.80;99.50;;;;;;5088902;28;20187;-69
2021/06/24 12:09:21;;;;;;;2.15;1.63;;;36.50;98.80;;;;;;5088791;28;20167;-69
2021/06/24 12:11:50;;;;;;;23.23;4.00;;;36.60;97.90;;;;;;5088736;28;20160;-69
2021/06/24 12:14:26;;;;;;;2.15;1.05;;;36.50;97.90;;;;;;5088660;28;20210;-68
2021/06/24 12:17:10;;;;;;;3.95;2.10;;;36.60;98.00;;;;;;5070845;28;20247;-69
2021/06/24 12:19:51;;;;;;;17.67;1.77;;;36.70;98.10;;;;;;5092560;28;20242;-69
2021/06/24 12:22:39;;;;;;;4.38;2.15;;;35.50;98.30;;;;;;5092409;28;20166;-69
2021/06/24 12:25:08;;;;;;;3.42;1.25;;;35.20;99.40;;;;;;5074064;28;20618;-68
2021/06/24 12:27:39;;;;;;;0.88;0.88;;;34.60;99.10;;;;;;5092558;28;20164;-69
2021/06/24 12:30:17;;;;;;;3.15;1.27;;;34.20;99.40;;;;;;5092202;28;20159;-69
2021/06/24 12:32:52;;;;;;;1.27;1.20;;;34.30;99.30;;;;;;5074255;28;20182;-69
2021/06/24 12:35:34;;;;;;;6.22;1.00;;;34.00;99.60;;;;;;5092228;28;20254;-69
2021/06/24 12:38:11;;;;;;;4.05;1.83;;;33.90;99.40;;;;;;5092307;28;20166;-70
2021/06/24 12:40:44;;;;;;;10.32;1.50;;;33.90;98.80;;;;;;5092032;28;20163;-68
2021/06/24 12:43:16;;;;;;;0.77;0.70;;;34.10;98.50;;;;;;5074119;28;20223;-69
2021/06/24 12:45:42;;;;;;;5.95;2.13;;;34.20;98.80;;;;;;5091985;28;20246;-68
2021/06/24 12:48:34;;;;;;;4.30;1.08;;;34.10;99.40;;;;;;5073746;28;20194;-69
2021/06/24 12:51:06;;;;;;;4.32;1.80;;;33.80;99.60;;;;;;5092153;28;20218;-70
2021/06/24 12:53:36;;;;;;;15.43;1.40;;;33.70;99.10;;;;;;5091959;28;20203;-69
2021/06/24 12:56:05;;;;;;;2.33;1.45;;;33.80;99.90;;;;;;5091837;28;20547;-70
2021/06/24 12:58:34;;;;;;;3.63;1.10;;;34.00;97.10;;;;;;5091865;28;20219;-69
2021/06/24 13:01:08;;;;;;;0.98;0.88;;;34.00;94.90;;;;;;5091962;28;20148;-69
2021/06/24 13:03:54;;;;;;;0.75;0.75;;;34.10;95.00;;;;;;5091589;28;20201;-69
2021/06/24 13:06:29;;;;;;;5.05;1.42;;;34.20;96.60;;;;;;5074313;28;20160;-69
2021/06/24 13:09:00;;;;;;;0.55;0.55;;;34.30;95.10;;;;;;5073483;28;20247;-69